<?xml version="1.0" encoding="UTF-8" standalone="no" ?>
<gpx xmlns="http://www.topografix.com/GPX/1/1" xmlns:xsi="http://www.w3.org/2001/XMLSchema-instance" xsi:schemaLocation="http://www.topografix.com/GPX/1/1 http://www.topografix.com/GPX/1/1/gpx.xsd" version="1.1" creator="VisuGPX - https://www.visugpx.com">
  <metadata>
    <name>marche du 28 avril 2014</name>
    <desc><![CDATA[du sable et encore  du sable!!!]]></desc>
  </metadata>
  <trk>
    <name><![CDATA[marche du 28 avril 2014_1]]></name>
    <trkseg>
      <trkpt lat="44.08969" lon="0.18768">
        <ele>73</ele>
        <time>2014-04-25T07:01:07Z</time>
      </trkpt>
      <trkpt lat="44.08957" lon="0.18793">
        <ele>73</ele>
        <time>2014-04-25T07:01:37Z</time>
      </trkpt>
      <trkpt lat="44.08874" lon="0.18941">
        <ele>71</ele>
        <time>2014-04-25T07:02:07Z</time>
      </trkpt>
      <trkpt lat="44.08986" lon="0.19032">
        <ele>66</ele>
        <time>2014-04-25T07:02:37Z</time>
      </trkpt>
      <trkpt lat="44.09095" lon="0.19169">
        <ele>60</ele>
        <time>2014-04-25T07:03:07Z</time>
      </trkpt>
      <trkpt lat="44.0914" lon="0.19312">
        <ele>60</ele>
        <time>2014-04-25T07:03:37Z</time>
      </trkpt>
      <trkpt lat="44.0911" lon="0.19474">
        <ele>60</ele>
        <time>2014-04-25T07:04:07Z</time>
      </trkpt>
      <trkpt lat="44.09125" lon="0.19636">
        <ele>60</ele>
        <time>2014-04-25T07:04:38Z</time>
      </trkpt>
      <trkpt lat="44.09118" lon="0.1978">
        <ele>62</ele>
        <time>2014-04-25T07:05:08Z</time>
      </trkpt>
      <trkpt lat="44.09114" lon="0.19811">
        <ele>58</ele>
        <time>2014-04-25T07:05:38Z</time>
      </trkpt>
      <trkpt lat="44.09101" lon="0.19862">
        <ele>58</ele>
        <time>2014-04-25T07:06:08Z</time>
      </trkpt>
      <trkpt lat="44.09194" lon="0.20015">
        <ele>58</ele>
        <time>2014-04-25T07:06:38Z</time>
      </trkpt>
      <trkpt lat="44.09212" lon="0.20119">
        <ele>58</ele>
        <time>2014-04-25T07:07:08Z</time>
      </trkpt>
      <trkpt lat="44.09247" lon="0.20239">
        <ele>51</ele>
        <time>2014-04-25T07:07:39Z</time>
      </trkpt>
      <trkpt lat="44.09264" lon="0.20288">
        <ele>51</ele>
        <time>2014-04-25T07:08:09Z</time>
      </trkpt>
      <trkpt lat="44.09277" lon="0.20335">
        <ele>47</ele>
        <time>2014-04-25T07:08:39Z</time>
      </trkpt>
      <trkpt lat="44.09294" lon="0.20379">
        <ele>42</ele>
        <time>2014-04-25T07:09:09Z</time>
      </trkpt>
      <trkpt lat="44.0931" lon="0.2042">
        <ele>38</ele>
        <time>2014-04-25T07:09:39Z</time>
      </trkpt>
      <trkpt lat="44.09325" lon="0.20467">
        <ele>38</ele>
        <time>2014-04-25T07:10:09Z</time>
      </trkpt>
      <trkpt lat="44.09368" lon="0.20496">
        <ele>34</ele>
        <time>2014-04-25T07:10:40Z</time>
      </trkpt>
      <trkpt lat="44.0943" lon="0.20493">
        <ele>34</ele>
        <time>2014-04-25T07:11:10Z</time>
      </trkpt>
      <trkpt lat="44.095" lon="0.20505">
        <ele>30</ele>
        <time>2014-04-25T07:11:40Z</time>
      </trkpt>
      <trkpt lat="44.09503" lon="0.20506">
        <ele>30</ele>
        <time>2014-04-25T07:12:10Z</time>
      </trkpt>
      <trkpt lat="44.09504" lon="0.20507">
        <ele>30</ele>
        <time>2014-04-25T07:12:40Z</time>
      </trkpt>
      <trkpt lat="44.09503" lon="0.20507">
        <ele>30</ele>
        <time>2014-04-25T07:13:10Z</time>
      </trkpt>
      <trkpt lat="44.09503" lon="0.20507">
        <ele>30</ele>
        <time>2014-04-25T07:13:41Z</time>
      </trkpt>
      <trkpt lat="44.09504" lon="0.20506">
        <ele>30</ele>
        <time>2014-04-25T07:14:11Z</time>
      </trkpt>
      <trkpt lat="44.09505" lon="0.20506">
        <ele>29</ele>
        <time>2014-04-25T07:14:41Z</time>
      </trkpt>
      <trkpt lat="44.09505" lon="0.20506">
        <ele>29</ele>
        <time>2014-04-25T07:15:11Z</time>
      </trkpt>
      <trkpt lat="44.09505" lon="0.20506">
        <ele>29</ele>
        <time>2014-04-25T07:15:41Z</time>
      </trkpt>
      <trkpt lat="44.09504" lon="0.20506">
        <ele>29</ele>
        <time>2014-04-25T07:16:11Z</time>
      </trkpt>
      <trkpt lat="44.09504" lon="0.20505">
        <ele>29</ele>
        <time>2014-04-25T07:16:42Z</time>
      </trkpt>
      <trkpt lat="44.09504" lon="0.20504">
        <ele>29</ele>
        <time>2014-04-25T07:17:12Z</time>
      </trkpt>
      <trkpt lat="44.09503" lon="0.20503">
        <ele>29</ele>
        <time>2014-04-25T07:17:42Z</time>
      </trkpt>
      <trkpt lat="44.09504" lon="0.20504">
        <ele>29</ele>
        <time>2014-04-25T07:18:12Z</time>
      </trkpt>
      <trkpt lat="44.09505" lon="0.20504">
        <ele>29</ele>
        <time>2014-04-25T07:18:42Z</time>
      </trkpt>
      <trkpt lat="44.09505" lon="0.20504">
        <ele>29</ele>
        <time>2014-04-25T07:19:12Z</time>
      </trkpt>
      <trkpt lat="44.09508" lon="0.20503">
        <ele>29</ele>
        <time>2014-04-25T07:19:43Z</time>
      </trkpt>
      <trkpt lat="44.09506" lon="0.20504">
        <ele>29</ele>
        <time>2014-04-25T07:20:13Z</time>
      </trkpt>
      <trkpt lat="44.09503" lon="0.20505">
        <ele>29</ele>
        <time>2014-04-25T07:20:43Z</time>
      </trkpt>
      <trkpt lat="44.09502" lon="0.20505">
        <ele>28</ele>
        <time>2014-04-25T07:21:13Z</time>
      </trkpt>
      <trkpt lat="44.09502" lon="0.20505">
        <ele>28</ele>
        <time>2014-04-25T07:21:43Z</time>
      </trkpt>
      <trkpt lat="44.09502" lon="0.20505">
        <ele>28</ele>
        <time>2014-04-25T07:22:13Z</time>
      </trkpt>
      <trkpt lat="44.09502" lon="0.20505">
        <ele>28</ele>
        <time>2014-04-25T07:22:43Z</time>
      </trkpt>
      <trkpt lat="44.09504" lon="0.20505">
        <ele>28</ele>
        <time>2014-04-25T07:23:14Z</time>
      </trkpt>
      <trkpt lat="44.09506" lon="0.20505">
        <ele>28</ele>
        <time>2014-04-25T07:23:44Z</time>
      </trkpt>
      <trkpt lat="44.09507" lon="0.20504">
        <ele>27</ele>
        <time>2014-04-25T07:24:14Z</time>
      </trkpt>
      <trkpt lat="44.09504" lon="0.20504">
        <ele>27</ele>
        <time>2014-04-25T07:24:44Z</time>
      </trkpt>
      <trkpt lat="44.09502" lon="0.20505">
        <ele>27</ele>
        <time>2014-04-25T07:25:14Z</time>
      </trkpt>
      <trkpt lat="44.09504" lon="0.20504">
        <ele>27</ele>
        <time>2014-04-25T07:25:44Z</time>
      </trkpt>
      <trkpt lat="44.09504" lon="0.20505">
        <ele>28</ele>
        <time>2014-04-25T07:26:15Z</time>
      </trkpt>
      <trkpt lat="44.09504" lon="0.20505">
        <ele>28</ele>
        <time>2014-04-25T07:26:45Z</time>
      </trkpt>
      <trkpt lat="44.09504" lon="0.20506">
        <ele>28</ele>
        <time>2014-04-25T07:27:15Z</time>
      </trkpt>
      <trkpt lat="44.09504" lon="0.20505">
        <ele>28</ele>
        <time>2014-04-25T07:27:45Z</time>
      </trkpt>
      <trkpt lat="44.09506" lon="0.20505">
        <ele>27</ele>
        <time>2014-04-25T07:28:15Z</time>
      </trkpt>
      <trkpt lat="44.09505" lon="0.20505">
        <ele>27</ele>
        <time>2014-04-25T07:28:45Z</time>
      </trkpt>
      <trkpt lat="44.09504" lon="0.20505">
        <ele>27</ele>
        <time>2014-04-25T07:29:16Z</time>
      </trkpt>
      <trkpt lat="44.09561" lon="0.20522">
        <ele>25</ele>
        <time>2014-04-25T07:29:46Z</time>
      </trkpt>
      <trkpt lat="44.09624" lon="0.20607">
        <ele>25</ele>
        <time>2014-04-25T07:30:16Z</time>
      </trkpt>
      <trkpt lat="44.09654" lon="0.20663">
        <ele>25</ele>
        <time>2014-04-25T07:30:46Z</time>
      </trkpt>
      <trkpt lat="44.09665" lon="0.20711">
        <ele>25</ele>
        <time>2014-04-25T07:31:16Z</time>
      </trkpt>
      <trkpt lat="44.09675" lon="0.20755">
        <ele>21</ele>
        <time>2014-04-25T07:31:47Z</time>
      </trkpt>
      <trkpt lat="44.09692" lon="0.20804">
        <ele>21</ele>
        <time>2014-04-25T07:32:17Z</time>
      </trkpt>
      <trkpt lat="44.09711" lon="0.20849">
        <ele>21</ele>
        <time>2014-04-25T07:32:47Z</time>
      </trkpt>
      <trkpt lat="44.09731" lon="0.20895">
        <ele>21</ele>
        <time>2014-04-25T07:33:17Z</time>
      </trkpt>
      <trkpt lat="44.09748" lon="0.20941">
        <ele>20</ele>
        <time>2014-04-25T07:33:48Z</time>
      </trkpt>
      <trkpt lat="44.09762" lon="0.20985">
        <ele>20</ele>
        <time>2014-04-25T07:34:18Z</time>
      </trkpt>
      <trkpt lat="44.098" lon="0.21029">
        <ele>16</ele>
        <time>2014-04-25T07:34:48Z</time>
      </trkpt>
      <trkpt lat="44.09874" lon="0.21126">
        <ele>12</ele>
        <time>2014-04-25T07:35:18Z</time>
      </trkpt>
      <trkpt lat="44.09912" lon="0.21263">
        <ele>7</ele>
        <time>2014-04-25T07:35:48Z</time>
      </trkpt>
      <trkpt lat="44.09952" lon="0.21343">
        <ele>7</ele>
        <time>2014-04-25T07:36:18Z</time>
      </trkpt>
      <trkpt lat="44.0999" lon="0.21409">
        <ele>7</ele>
        <time>2014-04-25T07:36:49Z</time>
      </trkpt>
      <trkpt lat="44.10026" lon="0.21489">
        <ele>5</ele>
        <time>2014-04-25T07:37:19Z</time>
      </trkpt>
      <trkpt lat="44.10043" lon="0.21538">
        <ele>5</ele>
        <time>2014-04-25T07:37:49Z</time>
      </trkpt>
      <trkpt lat="44.10061" lon="0.21581">
        <ele>5</ele>
        <time>2014-04-25T07:38:19Z</time>
      </trkpt>
      <trkpt lat="44.10085" lon="0.21547">
        <ele>5</ele>
        <time>2014-04-25T07:38:49Z</time>
      </trkpt>
      <trkpt lat="44.10094" lon="0.21403">
        <ele>4</ele>
        <time>2014-04-25T07:39:19Z</time>
      </trkpt>
      <trkpt lat="44.10121" lon="0.21268">
        <ele>4</ele>
        <time>2014-04-25T07:39:50Z</time>
      </trkpt>
      <trkpt lat="44.10173" lon="0.21222">
        <ele>4</ele>
        <time>2014-04-25T07:40:20Z</time>
      </trkpt>
      <trkpt lat="44.10208" lon="0.21146">
        <ele>4</ele>
        <time>2014-04-25T07:40:50Z</time>
      </trkpt>
      <trkpt lat="44.10238" lon="0.21026">
        <ele>4</ele>
        <time>2014-04-25T07:41:20Z</time>
      </trkpt>
      <trkpt lat="44.10268" lon="0.20913">
        <ele>4</ele>
        <time>2014-04-25T07:41:50Z</time>
      </trkpt>
      <trkpt lat="44.10295" lon="0.20806">
        <ele>4</ele>
        <time>2014-04-25T07:42:20Z</time>
      </trkpt>
      <trkpt lat="44.10324" lon="0.20688">
        <ele>4</ele>
        <time>2014-04-25T07:42:51Z</time>
      </trkpt>
      <trkpt lat="44.10351" lon="0.20579">
        <ele>4</ele>
        <time>2014-04-25T07:43:21Z</time>
      </trkpt>
      <trkpt lat="44.10376" lon="0.20474">
        <ele>9</ele>
        <time>2014-04-25T07:43:51Z</time>
      </trkpt>
      <trkpt lat="44.10393" lon="0.20447">
        <ele>9</ele>
        <time>2014-04-25T07:44:21Z</time>
      </trkpt>
      <trkpt lat="44.10396" lon="0.20446">
        <ele>9</ele>
        <time>2014-04-25T07:44:51Z</time>
      </trkpt>
      <trkpt lat="44.10414" lon="0.20446">
        <ele>9</ele>
        <time>2014-04-25T07:45:22Z</time>
      </trkpt>
      <trkpt lat="44.10451" lon="0.20369">
        <ele>9</ele>
        <time>2014-04-25T07:45:52Z</time>
      </trkpt>
      <trkpt lat="44.10484" lon="0.20314">
        <ele>9</ele>
        <time>2014-04-25T07:46:22Z</time>
      </trkpt>
      <trkpt lat="44.10503" lon="0.20273">
        <ele>12</ele>
        <time>2014-04-25T07:46:52Z</time>
      </trkpt>
      <trkpt lat="44.10524" lon="0.20232">
        <ele>12</ele>
        <time>2014-04-25T07:47:22Z</time>
      </trkpt>
      <trkpt lat="44.10545" lon="0.20191">
        <ele>17</ele>
        <time>2014-04-25T07:47:52Z</time>
      </trkpt>
      <trkpt lat="44.10567" lon="0.20156">
        <ele>17</ele>
        <time>2014-04-25T07:48:23Z</time>
      </trkpt>
      <trkpt lat="44.10587" lon="0.20118">
        <ele>17</ele>
        <time>2014-04-25T07:48:53Z</time>
      </trkpt>
      <trkpt lat="44.10616" lon="0.20063">
        <ele>21</ele>
        <time>2014-04-25T07:49:23Z</time>
      </trkpt>
      <trkpt lat="44.10648" lon="0.2">
        <ele>21</ele>
        <time>2014-04-25T07:49:53Z</time>
      </trkpt>
      <trkpt lat="44.10677" lon="0.19956">
        <ele>21</ele>
        <time>2014-04-25T07:50:24Z</time>
      </trkpt>
      <trkpt lat="44.10678" lon="0.19955">
        <ele>25</ele>
        <time>2014-04-25T07:50:54Z</time>
      </trkpt>
      <trkpt lat="44.10721" lon="0.19919">
        <ele>25</ele>
        <time>2014-04-25T07:51:24Z</time>
      </trkpt>
      <trkpt lat="44.10751" lon="0.19876">
        <ele>25</ele>
        <time>2014-04-25T07:51:54Z</time>
      </trkpt>
      <trkpt lat="44.10785" lon="0.19802">
        <ele>25</ele>
        <time>2014-04-25T07:52:24Z</time>
      </trkpt>
      <trkpt lat="44.10815" lon="0.19726">
        <ele>26</ele>
        <time>2014-04-25T07:52:54Z</time>
      </trkpt>
      <trkpt lat="44.10833" lon="0.19683">
        <ele>26</ele>
        <time>2014-04-25T07:53:24Z</time>
      </trkpt>
      <trkpt lat="44.1085" lon="0.19634">
        <ele>30</ele>
        <time>2014-04-25T07:53:55Z</time>
      </trkpt>
      <trkpt lat="44.10869" lon="0.1959">
        <ele>30</ele>
        <time>2014-04-25T07:54:25Z</time>
      </trkpt>
      <trkpt lat="44.10886" lon="0.19545">
        <ele>30</ele>
        <time>2014-04-25T07:54:55Z</time>
      </trkpt>
      <trkpt lat="44.10906" lon="0.19501">
        <ele>30</ele>
        <time>2014-04-25T07:55:25Z</time>
      </trkpt>
      <trkpt lat="44.10924" lon="0.1946">
        <ele>33</ele>
        <time>2014-04-25T07:55:56Z</time>
      </trkpt>
      <trkpt lat="44.10944" lon="0.19421">
        <ele>33</ele>
        <time>2014-04-25T07:56:26Z</time>
      </trkpt>
      <trkpt lat="44.10963" lon="0.1938">
        <ele>37</ele>
        <time>2014-04-25T07:56:56Z</time>
      </trkpt>
      <trkpt lat="44.10983" lon="0.19339">
        <ele>37</ele>
        <time>2014-04-25T07:57:26Z</time>
      </trkpt>
      <trkpt lat="44.11003" lon="0.1931">
        <ele>37</ele>
        <time>2014-04-25T07:57:56Z</time>
      </trkpt>
      <trkpt lat="44.11021" lon="0.19269">
        <ele>37</ele>
        <time>2014-04-25T07:58:27Z</time>
      </trkpt>
      <trkpt lat="44.11034" lon="0.19242">
        <ele>37</ele>
        <time>2014-04-25T07:58:57Z</time>
      </trkpt>
      <trkpt lat="44.11031" lon="0.19238">
        <ele>40</ele>
        <time>2014-04-25T07:59:27Z</time>
      </trkpt>
      <trkpt lat="44.11029" lon="0.19232">
        <ele>40</ele>
        <time>2014-04-25T07:59:57Z</time>
      </trkpt>
      <trkpt lat="44.11029" lon="0.19231">
        <ele>40</ele>
        <time>2014-04-25T08:00:27Z</time>
      </trkpt>
      <trkpt lat="44.11028" lon="0.19231">
        <ele>40</ele>
        <time>2014-04-25T08:00:57Z</time>
      </trkpt>
      <trkpt lat="44.11028" lon="0.19224">
        <ele>40</ele>
        <time>2014-04-25T08:01:28Z</time>
      </trkpt>
      <trkpt lat="44.11055" lon="0.19192">
        <ele>40</ele>
        <time>2014-04-25T08:01:58Z</time>
      </trkpt>
      <trkpt lat="44.11078" lon="0.19152">
        <ele>40</ele>
        <time>2014-04-25T08:02:28Z</time>
      </trkpt>
      <trkpt lat="44.111" lon="0.19112">
        <ele>40</ele>
        <time>2014-04-25T08:02:58Z</time>
      </trkpt>
      <trkpt lat="44.11147" lon="0.19056">
        <ele>41</ele>
        <time>2014-04-25T08:03:28Z</time>
      </trkpt>
      <trkpt lat="44.11197" lon="0.19004">
        <ele>41</ele>
        <time>2014-04-25T08:03:59Z</time>
      </trkpt>
      <trkpt lat="44.11212" lon="0.18989">
        <ele>41</ele>
        <time>2014-04-25T08:04:29Z</time>
      </trkpt>
      <trkpt lat="44.11252" lon="0.18952">
        <ele>41</ele>
        <time>2014-04-25T08:04:59Z</time>
      </trkpt>
      <trkpt lat="44.11309" lon="0.18892">
        <ele>40</ele>
        <time>2014-04-25T08:05:29Z</time>
      </trkpt>
      <trkpt lat="44.11332" lon="0.18866">
        <ele>40</ele>
        <time>2014-04-25T08:05:59Z</time>
      </trkpt>
      <trkpt lat="44.11379" lon="0.18814">
        <ele>40</ele>
        <time>2014-04-25T08:06:29Z</time>
      </trkpt>
      <trkpt lat="44.11432" lon="0.18764">
        <ele>39</ele>
        <time>2014-04-25T08:07:00Z</time>
      </trkpt>
      <trkpt lat="44.115" lon="0.18698">
        <ele>39</ele>
        <time>2014-04-25T08:07:30Z</time>
      </trkpt>
      <trkpt lat="44.11561" lon="0.18629">
        <ele>35</ele>
        <time>2014-04-25T08:08:00Z</time>
      </trkpt>
      <trkpt lat="44.11626" lon="0.18563">
        <ele>35</ele>
        <time>2014-04-25T08:08:30Z</time>
      </trkpt>
      <trkpt lat="44.11678" lon="0.18501">
        <ele>35</ele>
        <time>2014-04-25T08:09:00Z</time>
      </trkpt>
      <trkpt lat="44.11683" lon="0.1847">
        <ele>35</ele>
        <time>2014-04-25T08:09:30Z</time>
      </trkpt>
      <trkpt lat="44.11684" lon="0.18454">
        <ele>34</ele>
        <time>2014-04-25T08:10:01Z</time>
      </trkpt>
      <trkpt lat="44.11687" lon="0.18449">
        <ele>34</ele>
        <time>2014-04-25T08:10:31Z</time>
      </trkpt>
      <trkpt lat="44.11689" lon="0.18358">
        <ele>34</ele>
        <time>2014-04-25T08:11:01Z</time>
      </trkpt>
      <trkpt lat="44.11687" lon="0.18254">
        <ele>34</ele>
        <time>2014-04-25T08:11:31Z</time>
      </trkpt>
      <trkpt lat="44.11687" lon="0.18154">
        <ele>31</ele>
        <time>2014-04-25T08:12:01Z</time>
      </trkpt>
      <trkpt lat="44.11689" lon="0.18099">
        <ele>31</ele>
        <time>2014-04-25T08:12:31Z</time>
      </trkpt>
      <trkpt lat="44.11691" lon="0.18057">
        <ele>31</ele>
        <time>2014-04-25T08:13:02Z</time>
      </trkpt>
      <trkpt lat="44.11687" lon="0.17944">
        <ele>31</ele>
        <time>2014-04-25T08:13:32Z</time>
      </trkpt>
      <trkpt lat="44.11687" lon="0.17815">
        <ele>31</ele>
        <time>2014-04-25T08:14:02Z</time>
      </trkpt>
      <trkpt lat="44.11688" lon="0.17683">
        <ele>31</ele>
        <time>2014-04-25T08:14:32Z</time>
      </trkpt>
      <trkpt lat="44.11687" lon="0.17598">
        <ele>30</ele>
        <time>2014-04-25T08:15:02Z</time>
      </trkpt>
      <trkpt lat="44.11687" lon="0.17597">
        <ele>30</ele>
        <time>2014-04-25T08:15:32Z</time>
      </trkpt>
      <trkpt lat="44.11686" lon="0.17595">
        <ele>31</ele>
        <time>2014-04-25T08:16:03Z</time>
      </trkpt>
      <trkpt lat="44.11675" lon="0.17563">
        <ele>31</ele>
        <time>2014-04-25T08:16:33Z</time>
      </trkpt>
      <trkpt lat="44.11655" lon="0.17558">
        <ele>31</ele>
        <time>2014-04-25T08:17:03Z</time>
      </trkpt>
      <trkpt lat="44.11624" lon="0.17556">
        <ele>31</ele>
        <time>2014-04-25T08:17:33Z</time>
      </trkpt>
      <trkpt lat="44.1159" lon="0.1755">
        <ele>32</ele>
        <time>2014-04-25T08:18:03Z</time>
      </trkpt>
      <trkpt lat="44.11572" lon="0.17537">
        <ele>32</ele>
        <time>2014-04-25T08:18:34Z</time>
      </trkpt>
      <trkpt lat="44.11558" lon="0.17517">
        <ele>32</ele>
        <time>2014-04-25T08:19:04Z</time>
      </trkpt>
      <trkpt lat="44.11537" lon="0.17486">
        <ele>32</ele>
        <time>2014-04-25T08:19:34Z</time>
      </trkpt>
      <trkpt lat="44.11516" lon="0.17451">
        <ele>33</ele>
        <time>2014-04-25T08:20:04Z</time>
      </trkpt>
      <trkpt lat="44.11494" lon="0.17416">
        <ele>33</ele>
        <time>2014-04-25T08:20:34Z</time>
      </trkpt>
      <trkpt lat="44.11473" lon="0.17382">
        <ele>33</ele>
        <time>2014-04-25T08:21:04Z</time>
      </trkpt>
      <trkpt lat="44.11452" lon="0.17348">
        <ele>37</ele>
        <time>2014-04-25T08:21:35Z</time>
      </trkpt>
      <trkpt lat="44.11418" lon="0.17329">
        <ele>37</ele>
        <time>2014-04-25T08:22:05Z</time>
      </trkpt>
      <trkpt lat="44.11354" lon="0.17308">
        <ele>37</ele>
        <time>2014-04-25T08:22:35Z</time>
      </trkpt>
      <trkpt lat="44.11335" lon="0.17291">
        <ele>37</ele>
        <time>2014-04-25T08:23:05Z</time>
      </trkpt>
      <trkpt lat="44.11319" lon="0.17264">
        <ele>37</ele>
        <time>2014-04-25T08:23:36Z</time>
      </trkpt>
      <trkpt lat="44.11312" lon="0.17238">
        <ele>42</ele>
        <time>2014-04-25T08:24:06Z</time>
      </trkpt>
      <trkpt lat="44.11304" lon="0.17201">
        <ele>42</ele>
        <time>2014-04-25T08:24:36Z</time>
      </trkpt>
      <trkpt lat="44.113" lon="0.1716">
        <ele>42</ele>
        <time>2014-04-25T08:25:06Z</time>
      </trkpt>
      <trkpt lat="44.11299" lon="0.1712">
        <ele>45</ele>
        <time>2014-04-25T08:25:36Z</time>
      </trkpt>
      <trkpt lat="44.113" lon="0.17104">
        <ele>45</ele>
        <time>2014-04-25T08:26:06Z</time>
      </trkpt>
      <trkpt lat="44.11301" lon="0.17103">
        <ele>45</ele>
        <time>2014-04-25T08:26:37Z</time>
      </trkpt>
      <trkpt lat="44.11301" lon="0.17104">
        <ele>45</ele>
        <time>2014-04-25T08:27:07Z</time>
      </trkpt>
      <trkpt lat="44.11301" lon="0.17105">
        <ele>45</ele>
        <time>2014-04-25T08:27:37Z</time>
      </trkpt>
      <trkpt lat="44.11301" lon="0.17107">
        <ele>44</ele>
        <time>2014-04-25T08:28:07Z</time>
      </trkpt>
      <trkpt lat="44.11301" lon="0.17108">
        <ele>44</ele>
        <time>2014-04-25T08:28:37Z</time>
      </trkpt>
      <trkpt lat="44.11303" lon="0.17079">
        <ele>44</ele>
        <time>2014-04-25T08:29:07Z</time>
      </trkpt>
      <trkpt lat="44.11303" lon="0.17017">
        <ele>44</ele>
        <time>2014-04-25T08:29:38Z</time>
      </trkpt>
      <trkpt lat="44.11309" lon="0.16951">
        <ele>44</ele>
        <time>2014-04-25T08:30:08Z</time>
      </trkpt>
      <trkpt lat="44.11315" lon="0.16905">
        <ele>45</ele>
        <time>2014-04-25T08:30:38Z</time>
      </trkpt>
      <trkpt lat="44.11306" lon="0.16863">
        <ele>45</ele>
        <time>2014-04-25T08:31:08Z</time>
      </trkpt>
      <trkpt lat="44.11307" lon="0.1686">
        <ele>45</ele>
        <time>2014-04-25T08:31:38Z</time>
      </trkpt>
      <trkpt lat="44.11281" lon="0.16839">
        <ele>45</ele>
        <time>2014-04-25T08:32:09Z</time>
      </trkpt>
      <trkpt lat="44.11253" lon="0.16829">
        <ele>48</ele>
        <time>2014-04-25T08:32:39Z</time>
      </trkpt>
      <trkpt lat="44.11238" lon="0.16815">
        <ele>48</ele>
        <time>2014-04-25T08:33:09Z</time>
      </trkpt>
      <trkpt lat="44.11217" lon="0.16789">
        <ele>48</ele>
        <time>2014-04-25T08:33:39Z</time>
      </trkpt>
      <trkpt lat="44.1119" lon="0.16768">
        <ele>48</ele>
        <time>2014-04-25T08:34:09Z</time>
      </trkpt>
      <trkpt lat="44.11169" lon="0.16737">
        <ele>48</ele>
        <time>2014-04-25T08:34:39Z</time>
      </trkpt>
      <trkpt lat="44.11149" lon="0.16712">
        <ele>52</ele>
        <time>2014-04-25T08:35:10Z</time>
      </trkpt>
      <trkpt lat="44.11133" lon="0.16697">
        <ele>52</ele>
        <time>2014-04-25T08:35:40Z</time>
      </trkpt>
      <trkpt lat="44.11111" lon="0.16685">
        <ele>52</ele>
        <time>2014-04-25T08:36:10Z</time>
      </trkpt>
      <trkpt lat="44.11097" lon="0.16672">
        <ele>52</ele>
        <time>2014-04-25T08:36:40Z</time>
      </trkpt>
      <trkpt lat="44.11096" lon="0.16661">
        <ele>52</ele>
        <time>2014-04-25T08:37:10Z</time>
      </trkpt>
      <trkpt lat="44.11093" lon="0.16656">
        <ele>52</ele>
        <time>2014-04-25T08:37:40Z</time>
      </trkpt>
      <trkpt lat="44.11072" lon="0.16651">
        <ele>52</ele>
        <time>2014-04-25T08:38:11Z</time>
      </trkpt>
      <trkpt lat="44.11051" lon="0.16642">
        <ele>55</ele>
        <time>2014-04-25T08:38:41Z</time>
      </trkpt>
      <trkpt lat="44.11023" lon="0.1663">
        <ele>59</ele>
        <time>2014-04-25T08:39:11Z</time>
      </trkpt>
      <trkpt lat="44.11012" lon="0.1659">
        <ele>59</ele>
        <time>2014-04-25T08:39:41Z</time>
      </trkpt>
      <trkpt lat="44.10978" lon="0.16557">
        <ele>59</ele>
        <time>2014-04-25T08:40:11Z</time>
      </trkpt>
      <trkpt lat="44.10948" lon="0.16531">
        <ele>57</ele>
        <time>2014-04-25T08:40:41Z</time>
      </trkpt>
      <trkpt lat="44.10932" lon="0.16514">
        <ele>57</ele>
        <time>2014-04-25T08:41:12Z</time>
      </trkpt>
      <trkpt lat="44.10905" lon="0.16484">
        <ele>57</ele>
        <time>2014-04-25T08:41:42Z</time>
      </trkpt>
      <trkpt lat="44.10876" lon="0.16457">
        <ele>57</ele>
        <time>2014-04-25T08:42:12Z</time>
      </trkpt>
      <trkpt lat="44.1085" lon="0.1643">
        <ele>54</ele>
        <time>2014-04-25T08:42:42Z</time>
      </trkpt>
      <trkpt lat="44.10824" lon="0.16406">
        <ele>54</ele>
        <time>2014-04-25T08:43:12Z</time>
      </trkpt>
      <trkpt lat="44.10792" lon="0.16396">
        <ele>54</ele>
        <time>2014-04-25T08:43:43Z</time>
      </trkpt>
      <trkpt lat="44.10757" lon="0.16382">
        <ele>52</ele>
        <time>2014-04-25T08:44:13Z</time>
      </trkpt>
      <trkpt lat="44.10724" lon="0.16372">
        <ele>52</ele>
        <time>2014-04-25T08:44:43Z</time>
      </trkpt>
      <trkpt lat="44.10691" lon="0.16362">
        <ele>52</ele>
        <time>2014-04-25T08:45:13Z</time>
      </trkpt>
      <trkpt lat="44.10659" lon="0.1635">
        <ele>51</ele>
        <time>2014-04-25T08:45:43Z</time>
      </trkpt>
      <trkpt lat="44.10631" lon="0.16341">
        <ele>51</ele>
        <time>2014-04-25T08:46:14Z</time>
      </trkpt>
      <trkpt lat="44.10603" lon="0.16331">
        <ele>51</ele>
        <time>2014-04-25T08:46:44Z</time>
      </trkpt>
      <trkpt lat="44.1057" lon="0.16324">
        <ele>51</ele>
        <time>2014-04-25T08:47:14Z</time>
      </trkpt>
      <trkpt lat="44.10536" lon="0.16314">
        <ele>51</ele>
        <time>2014-04-25T08:47:44Z</time>
      </trkpt>
      <trkpt lat="44.10505" lon="0.16302">
        <ele>51</ele>
        <time>2014-04-25T08:48:15Z</time>
      </trkpt>
      <trkpt lat="44.10475" lon="0.16293">
        <ele>46</ele>
        <time>2014-04-25T08:48:45Z</time>
      </trkpt>
      <trkpt lat="44.10442" lon="0.1628">
        <ele>46</ele>
        <time>2014-04-25T08:49:15Z</time>
      </trkpt>
      <trkpt lat="44.10413" lon="0.16264">
        <ele>46</ele>
        <time>2014-04-25T08:49:45Z</time>
      </trkpt>
      <trkpt lat="44.10393" lon="0.16249">
        <ele>46</ele>
        <time>2014-04-25T08:50:15Z</time>
      </trkpt>
      <trkpt lat="44.10372" lon="0.1628">
        <ele>46</ele>
        <time>2014-04-25T08:50:45Z</time>
      </trkpt>
      <trkpt lat="44.10314" lon="0.16384">
        <ele>46</ele>
        <time>2014-04-25T08:51:16Z</time>
      </trkpt>
      <trkpt lat="44.10252" lon="0.16507">
        <ele>42</ele>
        <time>2014-04-25T08:51:46Z</time>
      </trkpt>
      <trkpt lat="44.10197" lon="0.1648">
        <ele>42</ele>
        <time>2014-04-25T08:52:16Z</time>
      </trkpt>
      <trkpt lat="44.10141" lon="0.16435">
        <ele>42</ele>
        <time>2014-04-25T08:52:46Z</time>
      </trkpt>
      <trkpt lat="44.10086" lon="0.16384">
        <ele>42</ele>
        <time>2014-04-25T08:53:16Z</time>
      </trkpt>
      <trkpt lat="44.10026" lon="0.16373">
        <ele>41</ele>
        <time>2014-04-25T08:53:46Z</time>
      </trkpt>
      <trkpt lat="44.09973" lon="0.16351">
        <ele>37</ele>
        <time>2014-04-25T08:54:17Z</time>
      </trkpt>
      <trkpt lat="44.099" lon="0.16316">
        <ele>33</ele>
        <time>2014-04-25T08:54:47Z</time>
      </trkpt>
      <trkpt lat="44.09833" lon="0.16273">
        <ele>33</ele>
        <time>2014-04-25T08:55:17Z</time>
      </trkpt>
      <trkpt lat="44.09812" lon="0.16257">
        <ele>29</ele>
        <time>2014-04-25T08:55:47Z</time>
      </trkpt>
      <trkpt lat="44.09789" lon="0.16247">
        <ele>29</ele>
        <time>2014-04-25T08:56:17Z</time>
      </trkpt>
      <trkpt lat="44.09737" lon="0.1623">
        <ele>25</ele>
        <time>2014-04-25T08:56:47Z</time>
      </trkpt>
      <trkpt lat="44.09698" lon="0.16261">
        <ele>21</ele>
        <time>2014-04-25T08:57:18Z</time>
      </trkpt>
      <trkpt lat="44.09693" lon="0.16314">
        <ele>21</ele>
        <time>2014-04-25T08:57:48Z</time>
      </trkpt>
      <trkpt lat="44.0967" lon="0.16354">
        <ele>25</ele>
        <time>2014-04-25T08:58:18Z</time>
      </trkpt>
      <trkpt lat="44.09634" lon="0.16397">
        <ele>25</ele>
        <time>2014-04-25T08:58:48Z</time>
      </trkpt>
      <trkpt lat="44.09598" lon="0.1646">
        <ele>25</ele>
        <time>2014-04-25T08:59:19Z</time>
      </trkpt>
      <trkpt lat="44.09568" lon="0.16531">
        <ele>25</ele>
        <time>2014-04-25T08:59:49Z</time>
      </trkpt>
      <trkpt lat="44.0954" lon="0.16605">
        <ele>25</ele>
        <time>2014-04-25T09:00:19Z</time>
      </trkpt>
      <trkpt lat="44.09506" lon="0.16693">
        <ele>25</ele>
        <time>2014-04-25T09:00:49Z</time>
      </trkpt>
      <trkpt lat="44.09487" lon="0.16781">
        <ele>25</ele>
        <time>2014-04-25T09:01:19Z</time>
      </trkpt>
      <trkpt lat="44.09473" lon="0.16874">
        <ele>25</ele>
        <time>2014-04-25T09:01:49Z</time>
      </trkpt>
      <trkpt lat="44.09455" lon="0.16943">
        <ele>25</ele>
        <time>2014-04-25T09:02:20Z</time>
      </trkpt>
      <trkpt lat="44.09429" lon="0.17025">
        <ele>25</ele>
        <time>2014-04-25T09:02:50Z</time>
      </trkpt>
      <trkpt lat="44.09409" lon="0.17109">
        <ele>28</ele>
        <time>2014-04-25T09:03:20Z</time>
      </trkpt>
      <trkpt lat="44.09397" lon="0.17179">
        <ele>28</ele>
        <time>2014-04-25T09:03:51Z</time>
      </trkpt>
      <trkpt lat="44.09383" lon="0.17221">
        <ele>28</ele>
        <time>2014-04-25T09:04:21Z</time>
      </trkpt>
      <trkpt lat="44.09375" lon="0.17264">
        <ele>28</ele>
        <time>2014-04-25T09:04:51Z</time>
      </trkpt>
      <trkpt lat="44.0937" lon="0.1731">
        <ele>28</ele>
        <time>2014-04-25T09:05:21Z</time>
      </trkpt>
      <trkpt lat="44.09349" lon="0.17389">
        <ele>29</ele>
        <time>2014-04-25T09:05:51Z</time>
      </trkpt>
      <trkpt lat="44.09346" lon="0.17479">
        <ele>33</ele>
        <time>2014-04-25T09:06:21Z</time>
      </trkpt>
      <trkpt lat="44.09342" lon="0.17578">
        <ele>33</ele>
        <time>2014-04-25T09:06:51Z</time>
      </trkpt>
      <trkpt lat="44.09338" lon="0.1766">
        <ele>33</ele>
        <time>2014-04-25T09:07:22Z</time>
      </trkpt>
      <trkpt lat="44.09309" lon="0.17745">
        <ele>34</ele>
        <time>2014-04-25T09:07:52Z</time>
      </trkpt>
      <trkpt lat="44.09302" lon="0.17762">
        <ele>34</ele>
        <time>2014-04-25T09:08:22Z</time>
      </trkpt>
      <trkpt lat="44.09301" lon="0.17763">
        <ele>34</ele>
        <time>2014-04-25T09:08:52Z</time>
      </trkpt>
      <trkpt lat="44.09293" lon="0.17806">
        <ele>34</ele>
        <time>2014-04-25T09:09:23Z</time>
      </trkpt>
      <trkpt lat="44.09284" lon="0.17853">
        <ele>38</ele>
        <time>2014-04-25T09:09:53Z</time>
      </trkpt>
      <trkpt lat="44.09284" lon="0.1786">
        <ele>38</ele>
        <time>2014-04-25T09:10:23Z</time>
      </trkpt>
      <trkpt lat="44.09282" lon="0.17876">
        <ele>38</ele>
        <time>2014-04-25T09:10:53Z</time>
      </trkpt>
      <trkpt lat="44.09277" lon="0.17918">
        <ele>38</ele>
        <time>2014-04-25T09:11:23Z</time>
      </trkpt>
      <trkpt lat="44.09266" lon="0.1796">
        <ele>40</ele>
        <time>2014-04-25T09:11:53Z</time>
      </trkpt>
      <trkpt lat="44.09261" lon="0.18006">
        <ele>40</ele>
        <time>2014-04-25T09:12:24Z</time>
      </trkpt>
      <trkpt lat="44.09261" lon="0.18068">
        <ele>40</ele>
        <time>2014-04-25T09:12:54Z</time>
      </trkpt>
      <trkpt lat="44.09243" lon="0.18104">
        <ele>43</ele>
        <time>2014-04-25T09:13:24Z</time>
      </trkpt>
      <trkpt lat="44.09195" lon="0.18091">
        <ele>43</ele>
        <time>2014-04-25T09:13:54Z</time>
      </trkpt>
      <trkpt lat="44.09167" lon="0.18088">
        <ele>43</ele>
        <time>2014-04-25T09:14:24Z</time>
      </trkpt>
      <trkpt lat="44.09143" lon="0.18078">
        <ele>47</ele>
        <time>2014-04-25T09:14:55Z</time>
      </trkpt>
      <trkpt lat="44.09119" lon="0.18068">
        <ele>47</ele>
        <time>2014-04-25T09:15:25Z</time>
      </trkpt>
      <trkpt lat="44.09092" lon="0.18058">
        <ele>47</ele>
        <time>2014-04-25T09:15:55Z</time>
      </trkpt>
      <trkpt lat="44.09038" lon="0.18038">
        <ele>52</ele>
        <time>2014-04-25T09:16:25Z</time>
      </trkpt>
      <trkpt lat="44.09027" lon="0.18099">
        <ele>52</ele>
        <time>2014-04-25T09:16:55Z</time>
      </trkpt>
      <trkpt lat="44.09038" lon="0.18185">
        <ele>52</ele>
        <time>2014-04-25T09:17:25Z</time>
      </trkpt>
      <trkpt lat="44.09032" lon="0.18276">
        <ele>52</ele>
        <time>2014-04-25T09:17:56Z</time>
      </trkpt>
      <trkpt lat="44.09028" lon="0.18366">
        <ele>60</ele>
        <time>2014-04-25T09:18:26Z</time>
      </trkpt>
      <trkpt lat="44.09024" lon="0.18467">
        <ele>60</ele>
        <time>2014-04-25T09:18:56Z</time>
      </trkpt>
      <trkpt lat="44.09025" lon="0.18576">
        <ele>64</ele>
        <time>2014-04-25T09:19:26Z</time>
      </trkpt>
      <trkpt lat="44.09018" lon="0.18666">
        <ele>64</ele>
        <time>2014-04-25T09:19:56Z</time>
      </trkpt>
      <trkpt lat="44.08976" lon="0.18759">
        <ele>64</ele>
        <time>2014-04-25T09:20:26Z</time>
      </trkpt>
    </trkseg>
  </trk>
</gpx>